createdAt,value
2017-08-03T00:00:49.747Z,53.6
2017-08-03T00:01:51.876Z,53.7
2017-08-03T00:02:53.676Z,53.5
2017-08-03T00:03:55.802Z,53.4
2017-08-03T00:04:57.936Z,53.6
2017-08-03T00:06:00.068Z,53.7
2017-08-03T00:07:02.204Z,53.7
2017-08-03T00:08:04.328Z,53.6
2017-08-03T00:09:06.158Z,53.4
2017-08-03T00:10:08.288Z,53.6
2017-08-03T00:11:09.732Z,53.7
2017-08-03T00:12:11.863Z,53.7
2017-08-03T00:13:13.661Z,53.6
2017-08-03T00:14:15.793Z,53.6
2017-08-03T00:15:17.590Z,53.8
2017-08-03T00:16:19.415Z,53.7
2017-08-03T00:17:21.549Z,53.5
2017-08-03T00:18:23.677Z,53.6
2017-08-03T00:19:25.808Z,53.8
2017-08-03T00:20:27.621Z,53.7
2017-08-03T00:21:29.765Z,53.5
2017-08-03T00:22:31.895Z,53.6
2017-08-03T00:23:33.695Z,53.9
2017-08-03T00:24:35.139Z,53.6
2017-08-03T00:25:36.915Z,53.5
2017-08-03T00:26:38.717Z,53.8
2017-08-03T00:27:40.849Z,53.9
2017-08-03T00:28:42.651Z,53.6
2017-08-03T00:29:44.449Z,53.5
2017-08-03T00:30:46.226Z,53.5
2017-08-03T00:31:48.358Z,53.8
2017-08-03T00:32:49.823Z,54.2
2017-08-03T00:33:51.622Z,53.5
2017-08-03T00:34:53.420Z,53.5
2017-08-03T00:35:55.216Z,53.7
2017-08-03T00:36:57.349Z,53.5
2017-08-03T00:37:59.511Z,53.7
2017-08-03T00:39:01.321Z,53.6
2017-08-03T00:40:03.116Z,54.1
2017-08-03T00:41:05.246Z,53.5
2017-08-03T00:42:07.046Z,53.5
2017-08-03T00:43:08.850Z,53.5
2017-08-03T00:44:10.977Z,53.4
2017-08-03T00:45:13.108Z,53.4
2017-08-03T00:46:14.910Z,53.4
2017-08-03T00:47:17.041Z,53.3
2017-08-03T00:48:19.221Z,54
2017-08-03T00:49:21.017Z,53.3
2017-08-03T00:50:22.815Z,53.4
2017-08-03T00:51:24.950Z,53.4
2017-08-03T00:52:27.080Z,53.5
2017-08-03T00:53:28.544Z,53.4
2017-08-03T00:54:30.672Z,53.5
2017-08-03T00:55:32.455Z,54.1
2017-08-03T00:56:34.233Z,53.5
2017-08-03T00:57:36.029Z,53.3
2017-08-03T00:58:37.826Z,53.4
2017-08-03T00:59:39.294Z,53.3
2017-08-03T01:00:40.761Z,53.5
2017-08-03T01:01:42.561Z,53.9
2017-08-03T01:02:44.692Z,54.4
2017-08-03T01:03:46.822Z,53.3
2017-08-03T01:04:48.619Z,54.3
2017-08-03T01:05:50.421Z,54
2017-08-03T01:06:51.943Z,54.3
2017-08-03T01:07:54.074Z,53.8
2017-08-03T01:08:56.206Z,53.6
2017-08-03T01:09:58.337Z,53.6
2017-08-03T01:11:00.470Z,53.2
2017-08-03T01:12:02.602Z,53.9
2017-08-03T01:13:04.401Z,54.3
2017-08-03T01:14:06.533Z,53.8
2017-08-03T01:15:07.648Z,53.6
2017-08-03T01:16:09.445Z,53.8
2017-08-03T01:17:11.577Z,53.8
2017-08-03T01:18:13.378Z,53.7
2017-08-03T01:19:15.153Z,53.8
2017-08-03T01:20:16.983Z,54.1
2017-08-03T01:21:19.106Z,54.2
2017-08-03T01:22:20.910Z,54
2017-08-03T01:23:22.351Z,53.8
2017-08-03T01:24:24.487Z,53.8
2017-08-03T01:25:25.952Z,53.9
2017-08-03T01:26:27.398Z,54.1
2017-08-03T01:27:29.183Z,53.7
2017-08-03T01:28:30.641Z,53.9
2017-08-03T01:29:32.105Z,53.9
2017-08-03T01:30:33.903Z,53.7
2017-08-03T01:31:36.035Z,53.9
2017-08-03T01:32:37.483Z,54.3
2017-08-03T01:33:39.260Z,53.9
2017-08-03T01:34:41.393Z,53.9
2017-08-03T01:35:43.551Z,53.8
2017-08-03T01:36:45.681Z,54
2017-08-03T01:37:47.812Z,53.8
2017-08-03T01:38:49.946Z,53.6
2017-08-03T01:39:51.723Z,54
2017-08-03T01:40:53.192Z,53.9
2017-08-03T01:41:54.967Z,53.6
2017-08-03T01:42:57.098Z,54.1
2017-08-03T01:43:58.543Z,53.6
2017-08-03T01:45:00.673Z,53.8
2017-08-03T01:46:02.454Z,53.6
2017-08-03T01:47:03.919Z,54.2
2017-08-03T01:48:05.715Z,53.6
2017-08-03T01:49:07.848Z,53.7
2017-08-03T01:50:09.980Z,54.5
2017-08-03T01:51:12.112Z,54.5
2017-08-03T01:52:14.245Z,53.5
2017-08-03T01:53:16.024Z,54
2017-08-03T01:54:17.493Z,54.3
2017-08-03T01:55:19.623Z,53.8
2017-08-03T01:56:21.753Z,54.4
2017-08-03T01:57:23.882Z,53.8
2017-08-03T01:58:25.684Z,54.8
2017-08-03T01:59:27.813Z,54
2017-08-03T02:00:29.944Z,53.8
2017-08-03T02:01:32.079Z,53.8
2017-08-03T02:02:34.238Z,54.4
2017-08-03T02:03:36.034Z,54.3
2017-08-03T02:04:38.167Z,54.2
2017-08-03T02:05:40.295Z,54.4
2017-08-03T02:06:42.427Z,54.4
2017-08-03T02:07:44.557Z,54.1
2017-08-03T02:08:46.690Z,54.4
2017-08-03T02:09:48.472Z,54.3
2017-08-03T02:10:50.270Z,54.2
2017-08-03T02:11:52.425Z,54.4
2017-08-03T02:12:54.221Z,54.3
2017-08-03T02:13:55.662Z,54.2
2017-08-03T02:14:56.775Z,54
2017-08-03T02:15:58.572Z,54.2
2017-08-03T02:17:00.704Z,54.3
2017-08-03T02:18:02.834Z,54.2
2017-08-03T02:19:04.965Z,54.3
2017-08-03T02:20:06.432Z,54.3
2017-08-03T02:21:07.908Z,54.3
2017-08-03T02:22:10.037Z,54.2
2017-08-03T02:23:12.170Z,54.2
2017-08-03T02:24:14.318Z,54.7
2017-08-03T02:25:16.112Z,54.2
2017-08-03T02:26:18.248Z,54.5
2017-08-03T02:27:20.384Z,54.6
2017-08-03T02:28:22.181Z,54.2
2017-08-03T02:29:24.313Z,54.2
2017-08-03T02:30:26.093Z,54.1
2017-08-03T02:31:27.560Z,54.1
2017-08-03T02:32:29.007Z,54.4
2017-08-03T02:33:30.143Z,54.2
2017-08-03T02:34:31.944Z,54.4
2017-08-03T02:35:33.721Z,54.5
2017-08-03T02:36:35.853Z,54.2
2017-08-03T02:37:37.319Z,54.5
2017-08-03T02:38:39.452Z,54.6
2017-08-03T02:39:41.579Z,54.1
2017-08-03T02:40:43.712Z,53.9
2017-08-03T02:41:45.844Z,54
2017-08-03T02:42:47.977Z,54.1
2017-08-03T02:43:50.120Z,54.1
2017-08-03T02:44:52.253Z,54.1
2017-08-03T02:45:54.033Z,54.2
2017-08-03T02:46:55.845Z,54
2017-08-03T02:47:57.640Z,54.5
2017-08-03T02:48:59.770Z,54.5
2017-08-03T02:50:01.904Z,54.4
2017-08-03T02:51:03.679Z,53.9
2017-08-03T02:52:05.480Z,54.1
2017-08-03T02:53:07.622Z,54.5
2017-08-03T02:54:09.755Z,54.2
2017-08-03T02:55:11.887Z,54.1
2017-08-03T02:56:14.022Z,54.2
2017-08-03T02:57:15.486Z,54.1
2017-08-03T02:58:17.286Z,54.5
2017-08-03T02:59:19.413Z,54.2
2017-08-03T03:00:21.239Z,54
2017-08-03T03:01:23.370Z,54.2
2017-08-03T03:02:24.839Z,54.4
2017-08-03T03:03:26.611Z,54
2017-08-03T03:04:28.410Z,54.3
2017-08-03T03:05:30.224Z,54.4
2017-08-03T03:06:32.026Z,54.2
2017-08-03T03:07:33.823Z,54.4
2017-08-03T03:08:35.269Z,54.2
2017-08-03T03:09:37.065Z,54.1
2017-08-03T03:10:39.208Z,54.3
2017-08-03T03:11:41.006Z,54.1
2017-08-03T03:12:42.804Z,54.1
2017-08-03T03:13:44.605Z,54.2
2017-08-03T03:14:46.738Z,54.4
2017-08-03T03:15:48.868Z,54.2
2017-08-03T03:16:50.647Z,54.4
2017-08-03T03:17:51.760Z,54.4
2017-08-03T03:18:53.891Z,54.2
2017-08-03T03:19:55.338Z,54.5
2017-08-03T03:20:57.117Z,54.2
2017-08-03T03:21:58.564Z,54.2
2017-08-03T03:23:00.696Z,54.4
2017-08-03T03:24:02.473Z,54.2
2017-08-03T03:25:04.605Z,54.4
2017-08-03T03:26:06.737Z,54.3
2017-08-03T03:27:08.872Z,54.3
2017-08-03T03:28:11.003Z,54.6
2017-08-03T03:29:13.134Z,54.2
2017-08-03T03:30:15.271Z,54.5
2017-08-03T03:31:17.065Z,54.2
2017-08-03T03:32:19.198Z,54.2
2017-08-03T03:33:21.330Z,54.1
2017-08-03T03:34:23.127Z,54.3
2017-08-03T03:35:25.258Z,54.2
2017-08-03T03:36:27.387Z,54.2
2017-08-03T03:37:28.832Z,54.5
2017-08-03T03:38:30.279Z,54.1
2017-08-03T03:39:32.415Z,54.2
2017-08-03T03:40:34.543Z,54.2
2017-08-03T03:41:36.013Z,54.1
2017-08-03T03:42:37.813Z,54.6
2017-08-03T03:43:39.592Z,54.4
2017-08-03T03:44:41.725Z,54.2
2017-08-03T03:45:43.524Z,54.4
2017-08-03T03:46:44.977Z,54.3
2017-08-03T03:47:46.116Z,54.3
2017-08-03T03:48:47.226Z,54.5
2017-08-03T03:49:49.360Z,54.2
2017-08-03T03:50:51.159Z,54.5
2017-08-03T03:51:52.960Z,54.8
2017-08-03T03:52:54.757Z,54.4
2017-08-03T03:53:56.558Z,54.4
2017-08-03T03:54:58.692Z,54.5
2017-08-03T03:56:00.493Z,54.3
2017-08-03T03:57:02.273Z,54.7
2017-08-03T03:58:04.073Z,54.3
2017-08-03T03:59:05.877Z,54.6
2017-08-03T04:00:08.009Z,54.7
2017-08-03T04:01:10.144Z,54.4
2017-08-03T04:02:11.943Z,54.5
2017-08-03T04:03:13.393Z,54.4
2017-08-03T04:04:15.196Z,54.3
2017-08-03T04:05:16.997Z,54.7
2017-08-03T04:06:19.126Z,54.6
2017-08-03T04:07:20.902Z,54.3
2017-08-03T04:08:23.038Z,54.3
2017-08-03T04:09:25.168Z,54.4
2017-08-03T04:10:26.968Z,54.7
2017-08-03T04:11:29.103Z,54.4
2017-08-03T04:12:30.211Z,54.4
2017-08-03T04:13:32.011Z,54.4
2017-08-03T04:14:34.147Z,54.4
2017-08-03T04:15:36.283Z,54.3
2017-08-03T04:16:37.725Z,54.3
2017-08-03T04:17:39.518Z,54.2
2017-08-03T04:18:41.296Z,54.4
2017-08-03T04:19:43.098Z,54.4
2017-08-03T04:20:45.233Z,54.3
2017-08-03T04:21:47.373Z,54.4
2017-08-03T04:22:49.504Z,54.4
2017-08-03T04:23:50.616Z,54.3
2017-08-03T04:24:52.748Z,54.7
2017-08-03T04:25:54.526Z,54.4
2017-08-03T04:26:56.665Z,54.7
2017-08-03T04:27:58.513Z,54.6
2017-08-03T04:29:00.310Z,54.2
2017-08-03T04:30:01.766Z,54.5
2017-08-03T04:31:03.563Z,54.2
2017-08-03T04:32:05.363Z,54.3
2017-08-03T04:33:07.166Z,54.6
2017-08-03T04:34:08.967Z,54.6
2017-08-03T04:35:10.419Z,54.3
2017-08-03T04:36:12.224Z,54.4
2017-08-03T04:37:13.696Z,54.4
2017-08-03T04:38:15.826Z,54.4
2017-08-03T04:39:17.630Z,54.2
2017-08-03T04:40:19.423Z,54.6
2017-08-03T04:41:21.556Z,54.1
2017-08-03T04:42:23.357Z,54.7
2017-08-03T04:43:25.492Z,54.4
2017-08-03T04:44:27.294Z,54.3
2017-08-03T04:45:29.427Z,54.5
2017-08-03T04:46:31.206Z,54.8
2017-08-03T04:47:33.336Z,54.6
2017-08-03T04:48:35.140Z,54.4
2017-08-03T04:49:37.274Z,54.4
2017-08-03T04:50:38.745Z,54.2
2017-08-03T04:51:40.877Z,54.5
2017-08-03T04:52:42.012Z,54.2
2017-08-03T04:53:44.143Z,54.6
2017-08-03T04:54:46.273Z,54.6
2017-08-03T04:55:48.408Z,54.1
2017-08-03T04:56:50.208Z,54.9
2017-08-03T04:57:52.339Z,54.3
2017-08-03T04:58:54.245Z,54.2
2017-08-03T04:59:56.376Z,54.3
2017-08-03T05:00:58.177Z,54.1
2017-08-03T05:02:00.310Z,54.6
2017-08-03T05:03:02.112Z,54.2
2017-08-03T05:04:04.246Z,54.6
2017-08-03T05:05:06.048Z,54.5
2017-08-03T05:06:08.180Z,54.2
2017-08-03T05:07:09.985Z,54.9
2017-08-03T05:08:12.117Z,54.5
2017-08-03T05:09:14.250Z,54.6
2017-08-03T05:10:16.052Z,54.5
2017-08-03T05:11:17.852Z,54.5
2017-08-03T05:12:19.650Z,54.6
2017-08-03T05:13:21.095Z,54.6
2017-08-03T05:14:22.556Z,54.5
2017-08-03T05:15:24.353Z,54.7
2017-08-03T05:16:26.487Z,54.3
2017-08-03T05:17:27.955Z,54.5
2017-08-03T05:18:30.090Z,54.5
2017-08-03T05:19:31.535Z,54.5
2017-08-03T05:20:33.670Z,54.2
2017-08-03T05:21:35.137Z,54.7
2017-08-03T05:22:36.919Z,54.3
2017-08-03T05:23:38.365Z,54.5
2017-08-03T05:24:40.214Z,54.3
2017-08-03T05:25:42.345Z,54.2
2017-08-03T05:26:44.141Z,54.1
2017-08-03T05:27:45.584Z,54.6
2017-08-03T05:28:47.716Z,54.5
2017-08-03T05:29:49.848Z,54.6
2017-08-03T05:30:51.979Z,54.7
2017-08-03T05:31:53.445Z,54.5
2017-08-03T05:32:55.247Z,54.5
2017-08-03T05:33:57.382Z,54.4
2017-08-03T05:34:58.926Z,54.5
2017-08-03T05:36:01.058Z,54.6
2017-08-03T05:37:02.839Z,54.5
2017-08-03T05:38:04.003Z,54.5
2017-08-03T05:39:05.798Z,54.5
2017-08-03T05:40:07.940Z,54.6
2017-08-03T05:41:09.723Z,54.5
2017-08-03T05:42:11.861Z,54.6
2017-08-03T05:43:13.664Z,54.5
2017-08-03T05:44:15.798Z,54.6
2017-08-03T05:45:17.575Z,54.5
2017-08-03T05:46:19.376Z,54.5
2017-08-03T05:47:21.505Z,54.6
2017-08-03T05:48:23.282Z,54.7
2017-08-03T05:49:25.414Z,54.5
2017-08-03T05:50:27.214Z,54.8
2017-08-03T05:51:29.347Z,54.6
2017-08-03T05:52:31.144Z,54.5
2017-08-03T05:53:33.281Z,54.2
2017-08-03T05:54:35.087Z,54.2
2017-08-03T05:55:36.531Z,54.3
2017-08-03T05:56:38.337Z,54.3
2017-08-03T05:57:39.801Z,54.3
2017-08-03T05:58:41.246Z,54.5
2017-08-03T05:59:43.045Z,54.5
2017-08-03T06:00:45.178Z,54.1
2017-08-03T06:01:46.994Z,54.4
2017-08-03T06:02:48.464Z,54.4
2017-08-03T06:03:50.265Z,54.2
2017-08-03T06:04:52.066Z,54.4
2017-08-03T06:05:54.199Z,54.7
2017-08-03T06:06:55.313Z,54.3
2017-08-03T06:07:57.443Z,54.3
2017-08-03T06:08:59.246Z,54.3
2017-08-03T06:10:01.049Z,54.3
2017-08-03T06:11:02.849Z,54.4
2017-08-03T06:12:04.979Z,54.4
2017-08-03T06:13:06.767Z,54.3
2017-08-03T06:14:08.899Z,54.3
2017-08-03T06:15:11.049Z,54.4
2017-08-03T06:16:12.852Z,54.3
2017-08-03T06:17:14.983Z,54.4
2017-08-03T06:18:16.434Z,54.4
2017-08-03T06:19:18.232Z,54.3
2017-08-03T06:20:20.036Z,54.4
2017-08-03T06:21:22.171Z,54.2
2017-08-03T06:22:24.308Z,54.5
2017-08-03T06:23:25.781Z,54.2
2017-08-03T06:24:27.225Z,54.2
2017-08-03T06:25:29.359Z,54.3
2017-08-03T06:26:31.493Z,54.3
2017-08-03T06:27:33.625Z,54.6
2017-08-03T06:28:35.756Z,54.4
2017-08-03T06:29:37.226Z,54.4
2017-08-03T06:30:39.034Z,54.7
2017-08-03T06:31:40.828Z,54.3
2017-08-03T06:32:42.607Z,54.7
2017-08-03T06:33:44.405Z,54.2
2017-08-03T06:34:45.875Z,54.2
2017-08-03T06:35:47.674Z,54.7
2017-08-03T06:36:49.477Z,54.6
2017-08-03T06:37:51.609Z,54.2
2017-08-03T06:38:53.746Z,54.2
2017-08-03T06:39:55.188Z,54.4
2017-08-03T06:40:56.306Z,54.3
2017-08-03T06:41:57.779Z,54.7
2017-08-03T06:42:59.256Z,54.2
2017-08-03T06:44:01.055Z,54.7
2017-08-03T06:45:02.501Z,54.2
2017-08-03T06:46:04.633Z,54.6
2017-08-03T06:47:06.430Z,54.3
2017-08-03T06:48:07.901Z,54.6
2017-08-03T06:49:09.701Z,54.3
2017-08-03T06:50:11.834Z,54.2
2017-08-03T06:51:13.633Z,54.6
2017-08-03T06:52:14.767Z,54.4
2017-08-03T06:53:16.580Z,54.6
2017-08-03T06:54:18.382Z,54.2
2017-08-03T06:55:19.514Z,54.4
2017-08-03T06:56:20.983Z,54.7
2017-08-03T06:57:23.113Z,54.3
2017-08-03T06:58:24.896Z,54.4
2017-08-03T06:59:26.342Z,54.6
2017-08-03T07:00:28.147Z,54.5
2017-08-03T07:01:30.279Z,54.5
2017-08-03T07:02:31.392Z,54.2
2017-08-03T07:03:33.521Z,54.5
2017-08-03T07:04:35.657Z,54.2
2017-08-03T07:05:36.770Z,54.6
2017-08-03T07:06:38.569Z,54.3
2017-08-03T07:07:40.702Z,54.4
2017-08-03T07:08:42.149Z,54.5
2017-08-03T07:09:44.280Z,54.6
2017-08-03T07:10:46.082Z,54.8
2017-08-03T07:11:47.888Z,54.5
2017-08-03T07:12:49.688Z,54.6
2017-08-03T07:13:51.486Z,54.6
2017-08-03T07:14:52.938Z,54.9
2017-08-03T07:15:55.073Z,54.1
2017-08-03T07:16:56.896Z,54.6
2017-08-03T07:17:58.697Z,54.6
2017-08-03T07:19:00.474Z,54.8
2017-08-03T07:20:01.919Z,54.6
2017-08-03T07:21:03.036Z,54.6
2017-08-03T07:22:05.218Z,54.3
2017-08-03T07:23:06.666Z,54.3
2017-08-03T07:24:08.801Z,54.3
2017-08-03T07:25:10.940Z,54.6
2017-08-03T07:26:13.074Z,54.6
2017-08-03T07:27:15.207Z,54.3
2017-08-03T07:28:16.993Z,54.4
2017-08-03T07:29:18.468Z,54.6
2017-08-03T07:30:20.600Z,54.9
2017-08-03T07:31:22.731Z,54.5
2017-08-03T07:32:24.867Z,54.5
2017-08-03T07:33:27.000Z,54.5
2017-08-03T07:34:29.131Z,54.5
2017-08-03T07:35:30.929Z,54.4
2017-08-03T07:36:32.725Z,54.2
2017-08-03T07:37:34.177Z,54.5
2017-08-03T07:38:35.979Z,54.5
2017-08-03T07:39:37.778Z,54.6
2017-08-03T07:40:39.908Z,54.4
2017-08-03T07:41:41.381Z,54.3
2017-08-03T07:42:43.514Z,54.4
2017-08-03T07:43:44.628Z,54.5
2017-08-03T07:44:46.771Z,54.4
2017-08-03T07:45:48.577Z,54.8
2017-08-03T07:46:50.044Z,54.5
2017-08-03T07:47:51.488Z,54.3
2017-08-03T07:48:53.290Z,54.3
2017-08-03T07:49:54.745Z,54.3
2017-08-03T07:50:56.878Z,54.6
2017-08-03T07:51:59.010Z,54.3
2017-08-03T07:53:00.482Z,54.3
2017-08-03T07:54:02.616Z,54.6
2017-08-03T07:55:04.394Z,54.4
2017-08-03T07:56:06.192Z,54.7
2017-08-03T07:57:08.016Z,54.3
2017-08-03T07:58:10.135Z,54.4
2017-08-03T07:59:11.597Z,54.5
2017-08-03T08:00:13.058Z,54.3
2017-08-03T08:01:15.188Z,54.4
2017-08-03T08:02:16.993Z,54.3
2017-08-03T08:03:18.778Z,54.3
2017-08-03T08:04:20.904Z,54.3
2017-08-03T08:05:22.687Z,54.3
2017-08-03T08:06:24.148Z,54.3
2017-08-03T08:07:25.951Z,54.5
2017-08-03T08:08:27.731Z,54.4
2017-08-03T08:09:29.530Z,54.6
2017-08-03T08:10:31.332Z,55
2017-08-03T08:11:33.466Z,54.4
2017-08-03T08:12:35.601Z,54.4
2017-08-03T08:13:37.737Z,54.4
2017-08-03T08:14:39.184Z,54.8
2017-08-03T08:15:40.297Z,54.7
2017-08-03T08:16:41.744Z,54.8
2017-08-03T08:17:43.875Z,54.8
2017-08-03T08:18:45.667Z,54.5
2017-08-03T08:19:47.801Z,54.5
2017-08-03T08:20:49.273Z,54.9
2017-08-03T08:21:51.401Z,54.5
2017-08-03T08:22:53.183Z,54.4
2017-08-03T08:23:54.299Z,55
2017-08-03T08:24:56.438Z,54.3
2017-08-03T08:25:58.238Z,54.5
2017-08-03T08:27:00.382Z,54.9
2017-08-03T08:28:02.511Z,55
2017-08-03T08:29:04.288Z,54.6
2017-08-03T08:30:05.733Z,54.5
2017-08-03T08:31:07.180Z,54.5
2017-08-03T08:32:08.644Z,54.6
2017-08-03T08:33:10.446Z,55
2017-08-03T08:34:12.580Z,54.9
2017-08-03T08:35:14.384Z,54.6
2017-08-03T08:36:16.523Z,54.6
2017-08-03T08:37:18.322Z,54.9
2017-08-03T08:38:19.100Z,54.7
2017-08-03T08:39:21.241Z,54.4
2017-08-03T08:40:23.369Z,54.4
2017-08-03T08:41:25.500Z,54.5
2017-08-03T08:42:26.945Z,54.4
2017-08-03T08:43:28.747Z,54.4
2017-08-03T08:44:30.882Z,54.6
2017-08-03T08:45:33.016Z,54.5
2017-08-03T08:46:35.149Z,54.6
2017-08-03T08:47:37.282Z,54.9
2017-08-03T08:48:39.073Z,54.9
2017-08-03T08:49:40.857Z,54.8
2017-08-03T08:50:42.633Z,54.7
2017-08-03T08:51:44.438Z,55
2017-08-03T08:52:46.239Z,54.6
2017-08-03T08:53:48.016Z,54.6
2017-08-03T08:54:50.175Z,54.5
2017-08-03T08:55:51.950Z,54.8
2017-08-03T08:56:53.751Z,55
2017-08-03T08:57:55.220Z,54.7
2017-08-03T08:58:56.693Z,54.8
2017-08-03T08:59:58.828Z,54.8
2017-08-03T09:01:00.958Z,55
2017-08-03T09:02:03.091Z,55.1
2017-08-03T09:03:04.871Z,54.9
2017-08-03T09:04:06.674Z,55
2017-08-03T09:05:08.123Z,55
2017-08-03T09:06:09.610Z,54.8
2017-08-03T09:07:11.736Z,54.5
2017-08-03T09:08:13.537Z,54.4
2017-08-03T09:09:15.006Z,54.6
2017-08-03T09:10:17.140Z,54.8
2017-08-03T09:11:19.274Z,54.8
2017-08-03T09:12:21.425Z,54.2
2017-08-03T09:13:23.558Z,54.4
2017-08-03T09:14:25.693Z,54.3
2017-08-03T09:15:27.831Z,54.3
2017-08-03T09:16:29.300Z,54.4
2017-08-03T09:17:31.434Z,54.6
2017-08-03T09:18:33.236Z,54.3
2017-08-03T09:19:35.370Z,54.3
2017-08-03T09:20:37.505Z,54.5
2017-08-03T09:21:39.640Z,54.3
2017-08-03T09:22:41.445Z,54.4
2017-08-03T09:23:43.246Z,54.7
2017-08-03T09:24:45.377Z,54.3
2017-08-03T09:25:46.945Z,54.3
2017-08-03T09:26:48.410Z,54.3
2017-08-03T09:27:50.211Z,54.4
2017-08-03T09:28:52.342Z,54.4
2017-08-03T09:29:53.784Z,54.2
2017-08-03T09:30:55.585Z,54.3
2017-08-03T09:31:57.387Z,54.7
2017-08-03T09:32:59.525Z,54.5
2017-08-03T09:34:01.326Z,54.4
2017-08-03T09:35:03.107Z,54.9
2017-08-03T09:36:04.909Z,54.7
2017-08-03T09:37:06.377Z,54.7
2017-08-03T09:38:08.508Z,54.7
2017-08-03T09:39:09.957Z,54.5
2017-08-03T09:40:11.757Z,54.7
2017-08-03T09:41:13.213Z,54.5
2017-08-03T09:42:15.345Z,54.2
2017-08-03T09:43:17.128Z,54.4
2017-08-03T09:44:19.267Z,54.6
2017-08-03T09:45:21.069Z,54.5
2017-08-03T09:46:22.871Z,54.5
2017-08-03T09:47:25.005Z,54.6
2017-08-03T09:48:26.803Z,54.7
2017-08-03T09:49:28.936Z,54.8
2017-08-03T09:50:31.078Z,54.1
2017-08-03T09:51:32.879Z,54.3
2017-08-03T09:52:34.657Z,54.2
2017-08-03T09:53:36.438Z,54.1
2017-08-03T09:54:37.907Z,54.3
2017-08-03T09:55:40.042Z,54.4
2017-08-03T09:56:42.178Z,54.4
2017-08-03T09:57:43.299Z,54.2
2017-08-03T09:58:45.079Z,54.3
2017-08-03T09:59:46.529Z,54.2
2017-08-03T10:00:48.664Z,54.3
2017-08-03T10:01:50.802Z,54.4
2017-08-03T10:02:52.251Z,54.4
2017-08-03T10:03:54.387Z,54.1
2017-08-03T10:04:56.166Z,54.5
2017-08-03T10:05:57.965Z,54.3
2017-08-03T10:06:59.428Z,54.1
2017-08-03T10:08:01.572Z,54.2
2017-08-03T10:09:03.695Z,54.4
2017-08-03T10:10:05.826Z,54.2
2017-08-03T10:11:07.298Z,54.3
2017-08-03T10:12:09.432Z,54.3
2017-08-03T10:13:10.573Z,54.5
2017-08-03T10:14:12.357Z,54.1
2017-08-03T10:15:14.158Z,54.1
2017-08-03T10:16:16.292Z,54
2017-08-03T10:17:18.424Z,54.2
2017-08-03T10:18:20.556Z,54.1
2017-08-03T10:19:22.340Z,54.2
2017-08-03T10:20:24.469Z,54.5
2017-08-03T10:21:25.582Z,54.2
2017-08-03T10:22:27.719Z,54.4
2017-08-03T10:23:29.852Z,54.4
2017-08-03T10:24:31.988Z,53.6
2017-08-03T10:25:33.799Z,53.6
2017-08-03T10:26:35.935Z,54.4
2017-08-03T10:27:37.401Z,53.9
2017-08-03T10:28:39.537Z,53.9
2017-08-03T10:29:41.005Z,54
2017-08-03T10:30:42.461Z,54.1
2017-08-03T10:31:44.596Z,53.4
2017-08-03T10:32:46.730Z,53.6
2017-08-03T10:33:48.861Z,54
2017-08-03T10:34:50.662Z,54.1
2017-08-03T10:35:52.799Z,53.6
2017-08-03T10:36:54.704Z,53.6
2017-08-03T10:37:56.486Z,53.8
2017-08-03T10:38:58.282Z,53.6
2017-08-03T10:40:00.061Z,54
2017-08-03T10:41:01.865Z,53.5
2017-08-03T10:42:03.333Z,53.3
2017-08-03T10:43:04.802Z,53.5
2017-08-03T10:44:06.604Z,53.9
2017-08-03T10:45:08.409Z,53.2
2017-08-03T10:46:10.212Z,53.3
2017-08-03T10:47:12.343Z,53.6
2017-08-03T10:48:13.811Z,53.6
2017-08-03T10:49:15.612Z,53.6
2017-08-03T10:50:17.742Z,53.1
2017-08-03T10:51:19.540Z,53.2
2017-08-03T10:52:21.672Z,53.6
2017-08-03T10:53:23.809Z,53
2017-08-03T10:54:25.588Z,53.3
2017-08-03T10:55:26.712Z,53.3
2017-08-03T10:56:28.846Z,53.2
2017-08-03T10:57:30.977Z,53.3
2017-08-03T10:58:33.108Z,53.4
2017-08-03T10:59:35.243Z,53
2017-08-03T11:00:37.042Z,53.1
2017-08-03T11:01:39.173Z,52.8
2017-08-03T11:02:41.306Z,52.7
2017-08-03T11:03:42.755Z,52.6
2017-08-03T11:04:44.230Z,53
2017-08-03T11:05:46.038Z,53.4
2017-08-03T11:06:47.172Z,53.1
2017-08-03T11:07:49.306Z,53.3
2017-08-03T11:08:50.777Z,52.7
2017-08-03T11:09:52.576Z,52.7
2017-08-03T11:10:54.374Z,52.5
2017-08-03T11:11:56.183Z,52.3
2017-08-03T11:12:57.983Z,52.7
2017-08-03T11:14:00.117Z,52.2
2017-08-03T11:15:01.568Z,52.9
2017-08-03T11:16:03.376Z,53.2
2017-08-03T11:17:05.173Z,52.8
2017-08-03T11:18:07.306Z,52.2
2017-08-03T11:19:09.438Z,52.1
2017-08-03T11:20:11.569Z,52.4
2017-08-03T11:21:13.704Z,52.1
2017-08-03T11:22:15.514Z,52.6
2017-08-03T11:23:17.695Z,52.1
2017-08-03T11:24:19.831Z,52.1
2017-08-03T11:25:21.606Z,52.4
2017-08-03T11:26:23.743Z,52.1
2017-08-03T11:27:25.191Z,52.3
2017-08-03T11:28:26.996Z,52.5
2017-08-03T11:29:29.134Z,52.5
2017-08-03T11:30:31.265Z,51.8
2017-08-03T11:31:33.067Z,51.7
2017-08-03T11:32:34.512Z,51.7
2017-08-03T11:33:36.649Z,52
2017-08-03T11:34:38.453Z,51.7
2017-08-03T11:35:40.604Z,52
2017-08-03T11:36:42.732Z,51.6
2017-08-03T11:37:44.868Z,51.7
2017-08-03T11:38:46.748Z,51.6
2017-08-03T11:39:48.881Z,51.4
2017-08-03T11:40:50.688Z,51.7
2017-08-03T11:41:52.129Z,51.8
2017-08-03T11:42:53.933Z,51.8
2017-08-03T11:43:55.786Z,51.8
2017-08-03T11:44:57.235Z,51.7
2017-08-03T11:45:59.038Z,51.9
2017-08-03T11:47:00.149Z,51.4
2017-08-03T11:48:02.284Z,51.1
2017-08-03T11:49:04.140Z,51.3
2017-08-03T11:50:05.584Z,51.2
2017-08-03T11:51:07.717Z,51.1
2017-08-03T11:52:09.187Z,51.3
2017-08-03T11:53:10.989Z,51.1
2017-08-03T11:54:12.789Z,51.3
2017-08-03T11:55:14.571Z,51
2017-08-03T11:56:16.708Z,50.8
2017-08-03T11:57:18.508Z,51
2017-08-03T11:58:19.982Z,51.2
2017-08-03T11:59:22.131Z,51.2
2017-08-03T12:00:24.271Z,51.6
2017-08-03T12:01:26.054Z,50.9
2017-08-03T12:02:27.857Z,51.3
2017-08-03T12:03:29.660Z,51
2017-08-03T12:04:31.468Z,51.4
2017-08-03T12:05:33.270Z,50.9
2017-08-03T12:06:35.398Z,51
2017-08-03T12:07:37.200Z,50.7
2017-08-03T12:08:38.650Z,50.9
2017-08-03T12:09:40.786Z,51.1
2017-08-03T12:10:42.928Z,51.2
2017-08-03T12:11:44.716Z,50.6
2017-08-03T12:12:46.522Z,51
2017-08-03T12:13:48.322Z,51.4
2017-08-03T12:14:50.123Z,50.9
2017-08-03T12:15:51.925Z,50.9
2017-08-03T12:16:53.728Z,51.1
2017-08-03T12:17:55.180Z,50.7
2017-08-03T12:18:57.316Z,51
2017-08-03T12:19:59.117Z,50.8
2017-08-03T12:21:00.893Z,50.8
2017-08-03T12:22:02.351Z,50.6
2017-08-03T12:23:04.142Z,50.8
2017-08-03T12:24:05.948Z,50.9
2017-08-03T12:25:07.751Z,51.1
2017-08-03T12:26:09.533Z,51.2
2017-08-03T12:27:11.665Z,50.8
2017-08-03T12:28:13.473Z,50.7
2017-08-03T12:29:15.251Z,50.8
2017-08-03T12:30:17.385Z,50.9
2017-08-03T12:31:18.841Z,50.8
2017-08-03T12:32:20.636Z,50.9
2017-08-03T12:33:22.771Z,50.8
2017-08-03T12:34:24.907Z,50.7
2017-08-03T12:35:27.047Z,50.7
2017-08-03T12:36:28.850Z,50.8
2017-08-03T12:37:30.654Z,50.9
2017-08-03T12:38:32.790Z,51
2017-08-03T12:39:34.924Z,50.8
2017-08-03T12:40:36.381Z,50.7
2017-08-03T12:41:38.517Z,51.2
2017-08-03T12:42:40.320Z,50.8
2017-08-03T12:43:42.451Z,50.7
2017-08-03T12:44:44.233Z,50.8
2017-08-03T12:45:46.012Z,50.7
2017-08-03T12:46:47.815Z,51.2
2017-08-03T12:47:49.263Z,50.9
2017-08-03T12:48:50.732Z,50.8
2017-08-03T12:49:52.868Z,50.8
2017-08-03T12:50:54.322Z,50.9
2017-08-03T12:51:56.451Z,50.8
2017-08-03T12:52:58.252Z,51.1
2017-08-03T12:54:00.051Z,51.2
2017-08-03T12:55:01.521Z,50.9
2017-08-03T12:56:02.969Z,51.2
2017-08-03T12:57:04.747Z,51.4
2017-08-03T12:58:05.530Z,51.3
2017-08-03T12:59:06.648Z,51.3
2017-08-03T13:00:07.785Z,51.4
2017-08-03T13:01:09.586Z,50.9
2017-08-03T13:02:11.370Z,50.9
2017-08-03T13:03:13.499Z,50.9
2017-08-03T13:04:14.949Z,50.8
2017-08-03T13:05:17.082Z,51.3
2017-08-03T13:06:19.266Z,51.3
2017-08-03T13:07:21.049Z,50.8
2017-08-03T13:08:22.849Z,50.9
2017-08-03T13:09:24.981Z,51.2
2017-08-03T13:10:26.884Z,51.2
2017-08-03T13:11:28.666Z,50.9
2017-08-03T13:12:30.802Z,51.1
2017-08-03T13:13:32.604Z,51
2017-08-03T13:14:34.737Z,51.2
2017-08-03T13:15:36.872Z,51.4
2017-08-03T13:16:38.337Z,51.5
2017-08-03T13:17:40.470Z,50.8
2017-08-03T13:18:42.252Z,50.9
2017-08-03T13:19:44.058Z,50.9
2017-08-03T13:20:45.523Z,50.8
2017-08-03T13:21:47.654Z,51
2017-08-03T13:22:49.798Z,50.9
2017-08-03T13:23:51.936Z,51
2017-08-03T13:24:54.066Z,51.2
2017-08-03T13:25:56.200Z,50.6
2017-08-03T13:26:57.331Z,50.6
2017-08-03T13:27:59.462Z,51.1
2017-08-03T13:29:01.596Z,51.2
2017-08-03T13:30:03.376Z,51.1
2017-08-03T13:31:05.508Z,51.1
2017-08-03T13:32:07.285Z,50.8
2017-08-03T13:33:08.759Z,50.7
2017-08-03T13:34:10.894Z,51.3
2017-08-03T13:35:12.361Z,50.9
2017-08-03T13:36:14.495Z,50.8
2017-08-03T13:37:16.295Z,51
2017-08-03T13:38:18.095Z,51.1
2017-08-03T13:39:19.538Z,50.8
2017-08-03T13:40:21.341Z,51
2017-08-03T13:41:23.141Z,50.9
2017-08-03T13:42:25.276Z,50.7
2017-08-03T13:43:27.412Z,50.6
2017-08-03T13:44:29.544Z,50.8
2017-08-03T13:45:31.677Z,50.9
2017-08-03T13:46:33.812Z,51